sensor_id;sensor_type;location;lat;lon;timestamp;P1;P2;P0
55076;PMS7003;40971;44.702;11.030;2023-02-28T00:02:45;12.00;12.00;9.00
55076;PMS7003;40971;44.702;11.030;2023-02-28T00:12:50;19.00;18.00;10.57
55076;PMS7003;40971;44.702;11.030;2023-02-28T00:22:52;17.00;15.00;14.00
55076;PMS7003;40971;44.702;11.030;2023-02-28T00:32:54;12.00;10.00;7.00
55076;PMS7003;40971;44.702;11.030;2023-02-28T00:42:55;13.25;13.25;8.50
55076;PMS7003;40971;44.702;11.030;2023-02-28T00:52:56;13.00;12.00;7.00
55076;PMS7003;40971;44.702;11.030;2023-02-28T01:02:58;13.00;13.00;9.67
55076;PMS7003;40971;44.702;11.030;2023-02-28T01:12:58;17.00;12.00;9.00
55076;PMS7003;40971;44.702;11.030;2023-02-28T01:23:00;14.33;13.00;9.00
55076;PMS7003;40971;44.702;11.030;2023-02-28T01:33:01;11.00;10.00;7.00
55076;PMS7003;40971;44.702;11.030;2023-02-28T01:43:02;12.50;11.00;9.00
55076;PMS7003;40971;44.702;11.030;2023-02-28T01:53:04;14.67;13.33;9.00
55076;PMS7003;40971;44.702;11.030;2023-02-28T02:03:12;15.50;15.50;10.00
55076;PMS7003;40971;44.702;11.030;2023-02-28T02:44:48;13.00;13.00;10.00
55076;PMS7003;40971;44.702;11.030;2023-02-28T02:54:59;19.50;16.00;12.00
55076;PMS7003;40971;44.702;11.030;2023-02-28T03:05:04;11.00;11.00;7.00
55076;PMS7003;40971;44.702;11.030;2023-02-28T03:15:19;13.00;13.00;9.00
55076;PMS7003;40971;44.702;11.030;2023-02-28T03:25:29;17.50;15.50;9.00
55076;PMS7003;40971;44.702;11.030;2023-02-28T03:36:10;16.00;14.00;9.50
55076;PMS7003;40971;44.702;11.030;2023-02-28T03:46:07;14.00;14.00;10.00
55076;PMS7003;40971;44.702;11.030;2023-02-28T03:56:13;13.00;13.00;10.00
55076;PMS7003;40971;44.702;11.030;2023-02-28T04:06:19;15.50;14.00;13.00
55076;PMS7003;40971;44.702;11.030;2023-02-28T04:16:22;10.00;10.00;7.00
55076;PMS7003;40971;44.702;11.030;2023-02-28T04:26:23;18.00;15.33;9.67
55076;PMS7003;40971;44.702;11.030;2023-02-28T04:36:24;18.50;17.00;12.00
55076;PMS7003;40971;44.702;11.030;2023-02-28T04:46:26;19.00;19.00;14.33
55076;PMS7003;40971;44.702;11.030;2023-02-28T04:56:28;14.00;14.00;10.00
55076;PMS7003;40971;44.702;11.030;2023-02-28T05:06:30;13.00;13.00;7.00
55076;PMS7003;40971;44.702;11.030;2023-02-28T05:16:32;18.00;18.00;12.50
55076;PMS7003;40971;44.702;11.030;2023-02-28T05:26:38;15.50;15.50;10.00
55076;PMS7003;40971;44.702;11.030;2023-02-28T05:36:43;21.57;17.14;12.57
55076;PMS7003;40971;44.702;11.030;2023-02-28T05:46:46;18.83;17.00;12.83
55076;PMS7003;40971;44.702;11.030;2023-02-28T05:56:48;15.67;14.33;11.33
55076;PMS7003;40971;44.702;11.030;2023-02-28T06:06:50;15.67;15.67;9.00
55076;PMS7003;40971;44.702;11.030;2023-02-28T06:16:51;12.00;12.00;9.00
55076;PMS7003;40971;44.702;11.030;2023-02-28T06:26:52;12.50;12.50;10.00
55076;PMS7003;40971;44.702;11.030;2023-02-28T06:36:53;13.00;13.00;10.67
55076;PMS7003;40971;44.702;11.030;2023-02-28T06:46:54;12.00;12.00;7.00
55076;PMS7003;40971;44.702;11.030;2023-02-28T06:56:57;16.67;15.00;10.00
55076;PMS7003;40971;44.702;11.030;2023-02-28T07:06:59;18.00;15.00;12.00
55076;PMS7003;40971;44.702;11.030;2023-02-28T07:17:03;16.43;15.86;12.00
55076;PMS7003;40971;44.702;11.030;2023-02-28T07:27:04;21.00;15.00;9.50
55076;PMS7003;40971;44.702;11.030;2023-02-28T07:37:05;15.00;15.00;12.00
55076;PMS7003;40971;44.702;11.030;2023-02-28T07:47:07;21.67;20.33;12.33
55076;PMS7003;40971;44.702;11.030;2023-02-28T07:57:12;18.14;17.29;13.29
55076;PMS7003;40971;44.702;11.030;2023-02-28T08:07:13;16.00;15.00;10.00
55076;PMS7003;40971;44.702;11.030;2023-02-28T08:17:18;17.86;17.00;11.57
55076;PMS7003;40971;44.702;11.030;2023-02-28T08:27:19;14.33;14.33;10.00
55076;PMS7003;40971;44.702;11.030;2023-02-28T08:37:21;23.33;16.00;13.00
55076;PMS7003;40971;44.702;11.030;2023-02-28T08:47:23;18.33;18.33;15.00
55076;PMS7003;40971;44.702;11.030;2023-02-28T08:57:25;19.67;19.67;15.33
55076;PMS7003;40971;44.702;11.030;2023-02-28T09:07:28;14.50;14.50;10.00
55076;PMS7003;40971;44.702;11.030;2023-02-28T09:17:30;17.33;16.00;12.33
55076;PMS7003;40971;44.702;11.030;2023-02-28T09:27:34;21.00;20.00;13.86
55076;PMS7003;40971;44.702;11.030;2023-02-28T09:37:35;24.33;22.67;14.33
55076;PMS7003;40971;44.702;11.030;2023-02-28T09:47:38;18.33;17.33;13.00
55076;PMS7003;40971;44.702;11.030;2023-02-28T09:57:44;20.33;18.00;13.67
55076;PMS7003;40971;44.702;11.030;2023-02-28T10:07:50;17.00;15.50;11.00
55076;PMS7003;40971;44.702;11.030;2023-02-28T10:18:05;12.83;12.83;9.50
55076;PMS7003;40971;44.702;11.030;2023-02-28T10:28:13;21.00;19.00;15.00
55076;PMS7003;40971;44.702;11.030;2023-02-28T10:38:21;24.00;21.00;16.00
55076;PMS7003;40971;44.702;11.030;2023-02-28T10:58:49;19.00;19.00;16.00
55076;PMS7003;40971;44.702;11.030;2023-02-28T11:09:37;21.00;19.00;13.00
55076;PMS7003;40971;44.702;11.030;2023-02-28T11:19:27;22.00;21.33;14.33
55076;PMS7003;40971;44.702;11.030;2023-02-28T11:29:32;20.33;20.33;13.00
55076;PMS7003;40971;44.702;11.030;2023-02-28T11:39:36;18.00;18.00;13.00
55076;PMS7003;40971;44.702;11.030;2023-02-28T12:00:40;25.67;24.00;16.00
55076;PMS7003;40971;44.702;11.030;2023-02-28T12:11:06;27.00;21.33;15.67
55076;PMS7003;40971;44.702;11.030;2023-02-28T12:31:20;27.40;21.60;15.60
55076;PMS7003;40971;44.702;11.030;2023-02-28T12:51:41;20.33;19.33;15.00
55076;PMS7003;40971;44.702;11.030;2023-02-28T13:12:27;21.00;19.00;15.00
55076;PMS7003;40971;44.702;11.030;2023-02-28T13:32:36;17.33;15.33;12.00
55076;PMS7003;40971;44.702;11.030;2023-02-28T14:23:42;19.33;17.33;13.00
55076;PMS7003;40971;44.702;11.030;2023-02-28T14:44:19;25.00;24.00;18.00
55076;PMS7003;40971;44.702;11.030;2023-02-28T14:54:25;27.33;24.33;16.00
55076;PMS7003;40971;44.702;11.030;2023-02-28T15:04:29;30.00;27.63;20.50
55076;PMS7003;40971;44.702;11.030;2023-02-28T15:14:33;36.50;32.00;23.00
55076;PMS7003;40971;44.702;11.030;2023-02-28T15:24:44;37.50;35.00;25.00
55076;PMS7003;40971;44.702;11.030;2023-02-28T15:34:52;36.40;34.60;23.00
55076;PMS7003;40971;44.702;11.030;2023-02-28T15:44:55;31.00;30.00;21.00
55076;PMS7003;40971;44.702;11.030;2023-02-28T15:54:58;42.00;38.00;25.67
55076;PMS7003;40971;44.702;11.030;2023-02-28T16:25:33;40.40;37.00;24.80
55076;PMS7003;40971;44.702;11.030;2023-02-28T16:35:41;44.20;42.80;27.60
55076;PMS7003;40971;44.702;11.030;2023-02-28T16:45:42;38.67;37.67;27.33
55076;PMS7003;40971;44.702;11.030;2023-02-28T16:55:46;40.38;38.75;25.38
55076;PMS7003;40971;44.702;11.030;2023-02-28T17:05:49;42.33;39.67;25.00
55076;PMS7003;40971;44.702;11.030;2023-02-28T17:15:52;47.80;43.40;24.00
55076;PMS7003;40971;44.702;11.030;2023-02-28T17:25:54;42.80;40.60;26.00
55076;PMS7003;40971;44.702;11.030;2023-02-28T17:35:55;45.33;40.33;24.67
55076;PMS7003;40971;44.702;11.030;2023-02-28T17:45:58;45.20;41.40;30.00
55076;PMS7003;40971;44.702;11.030;2023-02-28T17:56:00;46.40;39.40;26.60
55076;PMS7003;40971;44.702;11.030;2023-02-28T18:06:05;50.38;45.50;30.00
55076;PMS7003;40971;44.702;11.030;2023-02-28T18:16:07;42.00;37.00;26.00
55076;PMS7003;40971;44.702;11.030;2023-02-28T18:26:09;41.00;38.00;25.00
55076;PMS7003;40971;44.702;11.030;2023-02-28T18:36:13;42.38;41.00;27.88
55076;PMS7003;40971;44.702;11.030;2023-02-28T18:46:17;39.33;36.67;22.00
55076;PMS7003;40971;44.702;11.030;2023-02-28T18:56:21;45.00;39.67;26.00
55076;PMS7003;40971;44.702;11.030;2023-02-28T19:06:25;43.60;43.20;28.40
55076;PMS7003;40971;44.702;11.030;2023-02-28T19:16:30;49.00;42.33;30.00
55076;PMS7003;40971;44.702;11.030;2023-02-28T19:26:32;51.20;45.20;28.60
55076;PMS7003;40971;44.702;11.030;2023-02-28T19:36:35;48.00;44.17;29.33
55076;PMS7003;40971;44.702;11.030;2023-02-28T19:46:38;47.00;44.33;29.67
55076;PMS7003;40971;44.702;11.030;2023-02-28T19:56:40;39.40;37.00;26.20
55076;PMS7003;40971;44.702;11.030;2023-02-28T20:06:45;50.56;46.00;32.22
55076;PMS7003;40971;44.702;11.030;2023-02-28T20:16:48;58.17;49.67;32.67
55076;PMS7003;40971;44.702;11.030;2023-02-28T20:26:51;48.00;45.00;24.50
55076;PMS7003;40971;44.702;11.030;2023-02-28T20:36:54;41.00;37.80;25.00
55076;PMS7003;40971;44.702;11.030;2023-02-28T20:46:57;39.25;38.00;27.25
55076;PMS7003;40971;44.702;11.030;2023-02-28T20:57:01;38.67;38.67;24.67
55076;PMS7003;40971;44.702;11.030;2023-02-28T21:07:03;43.00;42.40;25.00
55076;PMS7003;40971;44.702;11.030;2023-02-28T21:17:05;39.00;36.67;24.33
55076;PMS7003;40971;44.702;11.030;2023-02-28T21:27:09;36.50;36.50;25.00
55076;PMS7003;40971;44.702;11.030;2023-02-28T21:37:13;34.50;31.50;20.50
55076;PMS7003;40971;44.702;11.030;2023-02-28T21:47:15;36.67;34.33;21.67
55076;PMS7003;40971;44.702;11.030;2023-02-28T21:57:19;34.63;32.25;22.63
55076;PMS7003;40971;44.702;11.030;2023-02-28T22:07:21;27.33;25.00;15.67
55076;PMS7003;40971;44.702;11.030;2023-02-28T22:17:23;40.00;33.00;20.00
55076;PMS7003;40971;44.702;11.030;2023-02-28T22:27:25;31.67;30.33;19.00
55076;PMS7003;40971;44.702;11.030;2023-02-28T22:37:26;24.33;22.67;15.33
55076;PMS7003;40971;44.702;11.030;2023-02-28T22:47:28;25.00;24.00;16.67
55076;PMS7003;40971;44.702;11.030;2023-02-28T22:57:32;24.25;23.00;14.38
55076;PMS7003;40971;44.702;11.030;2023-02-28T23:07:32;28.25;26.00;16.00
55076;PMS7003;40971;44.702;11.030;2023-02-28T23:17:34;29.33;27.67;19.67
55076;PMS7003;40971;44.702;11.030;2023-02-28T23:27:37;16.43;14.43;9.14
55076;PMS7003;40971;44.702;11.030;2023-02-28T23:37:39;25.00;23.67;15.00
55076;PMS7003;40971;44.702;11.030;2023-02-28T23:47:41;27.00;23.33;17.33
55076;PMS7003;40971;44.702;11.030;2023-02-28T23:57:42;19.00;16.67;12.67
